Time;durP1;ratioP1;P1;durP2;ratioP2;P2;SDS_P1;SDS_P2;PMS_P1;PMS_P2;Temp;Humidity;BMP_temperature;BMP_pressure;BME280_temperature;BME280_humidity;BME280_pressure;Samples;Min_cycle;Max_cycle;Signal;HPM_P1;HPM_P2
2021/12/27 00:00:40;;;;;;;17.50;4.22;;;14.30;99.90;;;;;;5055555;28;20021;-75
2021/12/27 00:03:07;;;;;;;19.88;5.10;;;14.40;99.90;;;;;;5055652;28;20029;-75
2021/12/27 00:05:33;;;;;;;20.75;4.45;;;14.40;99.90;;;;;;5054855;28;20031;-74
2021/12/27 00:07:59;;;;;;;26.80;4.93;;;14.40;99.90;;;;;;5053508;28;20036;-74
2021/12/27 00:10:29;;;;;;;24.10;3.85;;;14.40;99.90;;;;;;5068723;28;20044;-75
2021/12/27 00:12:57;;;;;;;18.52;4.03;;;14.40;99.90;;;;;;5074901;28;20028;-73
2021/12/27 00:15:25;;;;;;;22.85;4.55;;;14.40;99.90;;;;;;5074864;28;20539;-73
2021/12/27 00:17:51;;;;;;;18.45;5.15;;;14.40;99.90;;;;;;5074546;28;20063;-74
2021/12/27 00:20:20;;;;;;;20.25;4.68;;;14.50;99.90;;;;;;5075177;28;20028;-75
2021/12/27 00:22:48;;;;;;;29.25;4.85;;;14.50;99.90;;;;;;5074674;28;20429;-75
2021/12/27 00:25:15;;;;;;;27.50;4.68;;;14.50;99.90;;;;;;5074655;28;20020;-74
2021/12/27 00:27:42;;;;;;;23.38;4.35;;;14.50;99.90;;;;;;5074515;28;20094;-74
2021/12/27 00:30:08;;;;;;;;;;;14.50;99.90;;;;;;5074867;28;20100;-75
2021/12/27 00:32:37;;;;;;;17.20;3.70;;;14.40;99.90;;;;;;5065259;28;19912;-74
2021/12/27 00:35:07;;;;;;;22.75;4.40;;;14.40;99.90;;;;;;5054864;28;20017;-75
2021/12/27 00:37:33;;;;;;;18.80;4.15;;;14.50;99.90;;;;;;5054296;28;20028;-74
2021/12/27 00:40:00;;;;;;;32.42;4.88;;;14.40;99.90;;;;;;5054255;28;20021;-74
2021/12/27 00:42:26;;;;;;;20.17;4.53;;;14.40;99.90;;;;;;5054326;28;20108;-73
2021/12/27 00:44:52;;;;;;;20.55;4.57;;;14.50;99.90;;;;;;5054500;28;20057;-73
2021/12/27 00:47:18;;;;;;;23.17;6.03;;;14.50;99.90;;;;;;5054095;28;20029;-74
2021/12/27 00:49:44;;;;;;;15.52;5.03;;;14.50;99.90;;;;;;5054596;28;20029;-75
2021/12/27 00:52:10;;;;;;;19.07;5.53;;;14.50;99.90;;;;;;5054115;28;20076;-75
2021/12/27 00:54:36;;;;;;;28.20;5.47;;;14.60;99.90;;;;;;5054464;28;20052;-74
2021/12/27 00:57:03;;;;;;;16.27;4.80;;;14.50;99.90;;;;;;5054505;28;20457;-75
2021/12/27 00:59:29;;;;;;;26.85;4.80;;;14.50;99.90;;;;;;5053736;28;20280;-74
2021/12/27 01:01:56;;;;;;;22.17;4.43;;;14.50;99.90;;;;;;5054353;28;20024;-74
2021/12/27 01:04:22;;;;;;;22.83;4.55;;;14.50;99.90;;;;;;5053860;28;20263;-74
2021/12/27 01:06:48;;;;;;;14.40;4.25;;;14.50;99.90;;;;;;5053897;28;20029;-73
2021/12/27 01:09:25;;;;;;;17.77;4.30;;;14.50;99.90;;;;;;5052439;28;20355;-74
2021/12/27 01:14:45;;;;;;;21.10;4.47;;;14.50;99.90;;;;;;5054013;28;20115;-74
2021/12/27 01:17:11;;;;;;;20.75;4.10;;;14.40;99.90;;;;;;5054196;28;20025;-75
2021/12/27 01:19:38;;;;;;;20.23;4.95;;;14.40;99.90;;;;;;5053859;28;20096;-75
2021/12/27 01:22:04;;;;;;;25.92;4.40;;;14.40;99.90;;;;;;5053406;28;20020;-75
2021/12/27 01:24:30;;;;;;;21.45;4.28;;;14.30;99.90;;;;;;5053975;28;20035;-74
2021/12/27 01:27:00;;;;;;;23.50;4.72;;;14.40;99.90;;;;;;5053441;28;20017;-75
2021/12/27 01:29:26;;;;;;;16.67;4.18;;;14.30;99.90;;;;;;5053454;28;20017;-75
2021/12/27 01:31:52;;;;;;;13.77;4.47;;;14.30;99.90;;;;;;5053197;28;20036;-74
2021/12/27 01:34:18;;;;;;;13.90;4.80;;;14.20;99.90;;;;;;5053757;28;20049;-74
2021/12/27 01:36:44;;;;;;;25.13;5.20;;;14.20;99.90;;;;;;5053382;28;20021;-74
2021/12/27 01:39:10;;;;;;;17.57;4.17;;;14.20;99.90;;;;;;5053735;28;20025;-74
2021/12/27 01:41:36;;;;;;;16.15;5.05;;;14.30;99.90;;;;;;5051969;28;20469;-75
2021/12/27 01:44:02;;;;;;;19.40;5.00;;;14.20;99.90;;;;;;5053413;28;20115;-74
2021/12/27 01:46:30;;;;;;;16.88;4.60;;;14.20;99.90;;;;;;5053139;28;20072;-75
2021/12/27 01:48:56;;;;;;;17.70;4.93;;;14.20;99.90;;;;;;5051768;28;20105;-75
2021/12/27 01:51:30;;;;;;;23.05;5.95;;;14.20;99.90;;;;;;5052992;28;20037;-75
2021/12/27 01:53:58;;;;;;;21.27;5.72;;;14.20;99.90;;;;;;5053292;28;20090;-75
2021/12/27 01:56:25;;;;;;;23.45;4.55;;;14.20;99.90;;;;;;5053272;28;20157;-75
2021/12/27 01:58:53;;;;;;;20.25;5.00;;;14.10;99.90;;;;;;5051756;28;20059;-74
2021/12/27 02:01:20;;;;;;;15.65;4.43;;;14.10;99.90;;;;;;5053049;28;20115;-75
2021/12/27 02:03:46;;;;;;;17.63;5.30;;;14.00;99.90;;;;;;5052944;28;20025;-75
2021/12/27 02:06:14;;;;;;;19.30;5.25;;;14.00;99.90;;;;;;5053358;28;20033;-74
2021/12/27 02:08:42;;;;;;;20.83;4.75;;;14.00;99.90;;;;;;5052873;28;20062;-75
2021/12/27 02:11:11;;;;;;;14.75;4.18;;;14.00;99.90;;;;;;5052496;28;20029;-74
2021/12/27 02:13:42;;;;;;;19.35;5.30;;;13.90;99.90;;;;;;5052346;28;20104;-74
2021/12/27 02:16:09;;;;;;;16.98;5.65;;;13.90;99.90;;;;;;5053356;28;20021;-74
2021/12/27 02:18:37;;;;;;;16.45;5.05;;;13.90;99.90;;;;;;5053002;28;20441;-73
2021/12/27 02:21:04;;;;;;;20.40;5.10;;;13.90;99.90;;;;;;5052442;28;20084;-74
2021/12/27 02:23:30;;;;;;;17.67;5.20;;;13.90;99.90;;;;;;5052698;28;20098;-75
2021/12/27 02:25:56;;;;;;;16.20;4.80;;;13.90;99.90;;;;;;5052731;28;20028;-74
2021/12/27 02:28:23;;;;;;;23.10;4.68;;;13.90;99.90;;;;;;5052716;28;20025;-74
2021/12/27 02:30:52;;;;;;;18.73;5.43;;;14.00;99.90;;;;;;5052380;28;20025;-73
2021/12/27 02:33:19;;;;;;;17.52;4.90;;;14.00;99.90;;;;;;5052821;28;20048;-74
2021/12/27 02:35:55;;;;;;;19.40;4.80;;;14.00;99.90;;;;;;5052385;28;20025;-74
2021/12/27 02:38:27;;;;;;;18.05;4.70;;;14.10;99.90;;;;;;5052232;28;20029;-75
2021/12/27 02:40:55;;;;;;;18.40;4.47;;;14.10;99.90;;;;;;5052420;28;20037;-75
2021/12/27 02:43:24;;;;;;;20.50;5.13;;;14.10;99.90;;;;;;5050937;28;20489;-74
2021/12/27 02:45:56;;;;;;;16.85;4.50;;;14.10;99.90;;;;;;5052094;28;20147;-73
2021/12/27 02:48:26;;;;;;;19.50;4.47;;;14.10;99.90;;;;;;5050687;28;20472;-74
2021/12/27 02:50:53;;;;;;;25.98;5.10;;;14.20;99.90;;;;;;5052633;28;20440;-75
2021/12/27 02:53:21;;;;;;;22.27;5.22;;;14.20;99.90;;;;;;5052171;28;20025;-75
2021/12/27 02:55:49;;;;;;;17.63;5.00;;;14.20;99.90;;;;;;5052092;28;20032;-75
2021/12/27 02:58:16;;;;;;;19.35;5.28;;;14.20;99.90;;;;;;5051651;28;20032;-74
2021/12/27 03:00:46;;;;;;;23.13;5.05;;;14.10;99.90;;;;;;5051699;28;20040;-75
2021/12/27 03:03:12;;;;;;;15.60;4.70;;;14.10;99.90;;;;;;5051967;28;20024;-75
2021/12/27 03:05:41;;;;;;;16.85;4.32;;;14.10;99.90;;;;;;5051836;28;20107;-74
2021/12/27 03:08:13;;;;;;;21.75;4.97;;;14.10;99.90;;;;;;5051843;28;20071;-75
2021/12/27 03:10:44;;;;;;;14.43;4.63;;;14.10;99.90;;;;;;5051974;28;20025;-75
2021/12/27 03:13:19;;;;;;;16.33;5.50;;;14.10;99.90;;;;;;5052206;28;20054;-74
2021/12/27 03:15:49;;;;;;;17.27;4.80;;;14.10;99.90;;;;;;5052002;28;20040;-74
2021/12/27 03:18:16;;;;;;;18.42;5.03;;;14.20;99.90;;;;;;5051685;28;20021;-74
2021/12/27 03:20:42;;;;;;;;;;;14.20;99.90;;;;;;5052807;28;20036;-74
2021/12/27 03:23:08;;;;;;;20.55;5.15;;;14.10;99.90;;;;;;5052605;28;19905;-74
2021/12/27 03:25:34;;;;;;;13.95;4.50;;;14.10;99.90;;;;;;5055992;28;20031;-75
2021/12/27 03:28:00;;;;;;;23.55;4.90;;;14.20;99.90;;;;;;5055475;28;20515;-75
2021/12/27 03:30:27;;;;;;;18.97;4.43;;;14.10;99.90;;;;;;5055762;28;20067;-73
2021/12/27 03:32:54;;;;;;;17.00;4.93;;;14.10;99.90;;;;;;5055398;28;20033;-74
2021/12/27 03:35:35;;;;;;;21.40;4.45;;;14.10;99.90;;;;;;5055358;28;20017;-74
2021/12/27 03:38:04;;;;;;;21.05;4.72;;;14.10;99.90;;;;;;5056038;28;20021;-74
2021/12/27 03:40:30;;;;;;;19.35;4.78;;;14.20;99.90;;;;;;5055347;28;20031;-74
2021/12/27 03:42:56;;;;;;;14.13;4.65;;;14.20;99.90;;;;;;5055246;28;20126;-75
2021/12/27 03:45:29;;;;;;;19.17;4.82;;;14.30;99.90;;;;;;5055534;28;20056;-75
2021/12/27 03:47:55;;;;;;;16.65;4.32;;;14.30;99.90;;;;;;5055780;28;20025;-74
2021/12/27 03:50:24;;;;;;;21.50;5.20;;;14.40;99.90;;;;;;5055182;28;20052;-75
2021/12/27 03:52:52;;;;;;;16.58;5.13;;;14.40;99.90;;;;;;5055220;28;20098;-72
2021/12/27 03:55:18;;;;;;;24.50;5.35;;;14.40;99.90;;;;;;5055227;28;20064;-74
2021/12/27 03:57:52;;;;;;;19.05;4.93;;;14.40;99.90;;;;;;5055207;28;20028;-74
2021/12/27 04:02:49;;;;;;;18.60;5.40;;;14.40;99.90;;;;;;5054922;28;20100;-74
2021/12/27 04:05:16;;;;;;;15.32;4.75;;;14.40;99.90;;;;;;5054900;28;20429;-74
2021/12/27 04:07:47;;;;;;;19.48;4.97;;;14.40;99.90;;;;;;5055308;28;20025;-74
2021/12/27 04:10:15;;;;;;;26.67;5.28;;;14.40;99.90;;;;;;5054849;28;20029;-74
2021/12/27 04:12:41;;;;;;;15.55;4.15;;;14.40;99.90;;;;;;5055115;28;20134;-74
2021/12/27 04:15:09;;;;;;;30.25;5.05;;;14.40;99.90;;;;;;5055366;28;20029;-74
2021/12/27 04:17:36;;;;;;;17.15;4.43;;;14.40;99.90;;;;;;5055049;28;20108;-74
2021/12/27 04:20:22;;;;;;;16.17;5.40;;;14.40;99.90;;;;;;5054891;28;20025;-73
2021/12/27 04:22:49;;;;;;;15.55;4.32;;;14.30;99.90;;;;;;5054843;28;20064;-74
2021/12/27 04:25:16;;;;;;;19.75;4.88;;;14.30;99.90;;;;;;5054789;28;20021;-71
2021/12/27 04:27:43;;;;;;;22.10;5.15;;;14.30;99.90;;;;;;5054297;28;20063;-74
2021/12/27 04:30:10;;;;;;;21.70;4.75;;;14.30;99.90;;;;;;5054766;28;20102;-74
2021/12/27 04:32:36;;;;;;;;;;;14.40;99.90;;;;;;5053144;28;20044;-73
2021/12/27 04:35:02;;;;;;;22.30;4.95;;;14.40;99.90;;;;;;5053618;28;19904;-73
2021/12/27 04:37:29;;;;;;;;;;;14.40;99.90;;;;;;5055088;28;20127;-74
2021/12/27 04:39:55;;;;;;;;;;;14.40;99.90;;;;;;5055064;28;19908;-74
2021/12/27 04:42:22;;;;;;;16.63;4.60;;;14.30;99.90;;;;;;5054922;28;20403;-74
2021/12/27 04:44:48;;;;;;;20.52;5.22;;;14.30;99.90;;;;;;5054295;28;20081;-74
2021/12/27 04:47:16;;;;;;;18.83;5.17;;;14.40;99.90;;;;;;5054209;28;20017;-75
2021/12/27 04:49:43;;;;;;;16.80;4.75;;;14.40;99.90;;;;;;5054152;28;20592;-74
2021/12/27 04:52:10;;;;;;;;;;;14.40;99.90;;;;;;5054499;28;20448;-75
2021/12/27 04:54:36;;;;;;;;;;;14.40;99.90;;;;;;5054843;28;19904;-75
2021/12/27 04:57:02;;;;;;;18.15;5.57;;;14.40;99.90;;;;;;5054145;28;20015;-75
2021/12/27 04:59:29;;;;;;;21.15;5.25;;;14.50;99.90;;;;;;5053666;28;20106;-74
2021/12/27 05:01:55;;;;;;;20.92;5.65;;;14.50;99.90;;;;;;5054198;28;20048;-73
2021/12/27 05:04:21;;;;;;;22.33;5.45;;;14.50;99.90;;;;;;5053679;28;20040;-74
2021/12/27 05:06:47;;;;;;;21.55;5.15;;;14.50;99.90;;;;;;5053705;28;20033;-74
2021/12/27 05:09:13;;;;;;;18.73;5.07;;;14.50;99.90;;;;;;5053999;28;20048;-74
2021/12/27 05:11:40;;;;;;;26.87;5.10;;;14.50;99.90;;;;;;5053698;28;20041;-74
2021/12/27 05:14:06;;;;;;;;;;;14.50;99.90;;;;;;5054011;28;20260;-74
2021/12/27 05:16:32;;;;;;;16.20;5.00;;;14.50;99.90;;;;;;5052098;28;19963;-74
2021/12/27 05:18:58;;;;;;;18.70;4.03;;;14.50;99.90;;;;;;5052001;28;20017;-75
2021/12/27 05:21:24;;;;;;;13.20;4.30;;;14.50;99.90;;;;;;5053468;28;20588;-73
2021/12/27 05:23:50;;;;;;;16.80;4.68;;;14.50;99.90;;;;;;5053838;28;20017;-75
2021/12/27 05:26:17;;;;;;;17.33;4.57;;;14.50;99.90;;;;;;5054116;28;20116;-74
2021/12/27 05:28:43;;;;;;;19.40;4.32;;;14.40;99.90;;;;;;5053744;28;20101;-74
2021/12/27 05:31:09;;;;;;;16.23;4.77;;;14.40;99.90;;;;;;5053691;28;20041;-74
2021/12/27 05:33:36;;;;;;;19.60;4.85;;;14.50;99.90;;;;;;5053092;28;20044;-74
2021/12/27 05:36:02;;;;;;;20.85;4.88;;;14.40;99.90;;;;;;5053228;28;20064;-74
2021/12/27 05:38:28;;;;;;;16.05;4.18;;;14.50;99.90;;;;;;5053037;28;20025;-74
2021/12/27 05:40:54;;;;;;;11.17;3.60;;;14.50;99.90;;;;;;5053131;28;20029;-75
2021/12/27 05:43:26;;;;;;;20.15;4.78;;;14.50;99.90;;;;;;5053534;28;20029;-74
2021/12/27 05:45:52;;;;;;;21.85;4.85;;;14.50;99.90;;;;;;5053530;28;20013;-75
2021/12/27 05:48:18;;;;;;;16.15;4.05;;;14.50;99.90;;;;;;5052444;28;20064;-75
2021/12/27 05:50:44;;;;;;;16.67;4.50;;;14.50;99.90;;;;;;5052930;28;20496;-75
2021/12/27 05:53:10;;;;;;;19.00;5.70;;;14.50;99.90;;;;;;5051990;28;20123;-74
2021/12/27 05:55:37;;;;;;;11.55;4.28;;;14.50;99.90;;;;;;5052877;28;20017;-72
2021/12/27 05:58:04;;;;;;;16.70;4.72;;;14.50;99.90;;;;;;5051575;28;20064;-73
2021/12/27 06:00:30;;;;;;;17.70;4.28;;;14.50;99.90;;;;;;5052856;28;20037;-73
2021/12/27 06:02:57;;;;;;;20.27;4.50;;;14.50;99.90;;;;;;5052549;28;20025;-73
2021/12/27 06:05:24;;;;;;;;;;;14.50;99.90;;;;;;5052977;28;20544;-74
2021/12/27 06:07:50;;;;;;;18.85;4.25;;;14.50;99.90;;;;;;5052409;28;19908;-73
2021/12/27 06:10:17;;;;;;;18.52;4.00;;;14.50;99.90;;;;;;5052821;28;20102;-73
2021/12/27 06:12:43;;;;;;;;;;;14.50;99.90;;;;;;5053077;28;20098;-74
2021/12/27 06:15:11;;;;;;;16.63;4.13;;;14.50;99.90;;;;;;5052593;28;20250;-73
2021/12/27 06:17:37;;;;;;;15.20;5.10;;;14.50;99.90;;;;;;5052099;28;20229;-73
2021/12/27 06:20:05;;;;;;;;;;;14.60;99.90;;;;;;5052707;28;20028;-74
2021/12/27 06:22:32;;;;;;;12.70;4.47;;;14.50;99.90;;;;;;5051952;28;19912;-73
2021/12/27 06:25:03;;;;;;;15.60;4.88;;;14.50;99.90;;;;;;5050647;28;20358;-73
2021/12/27 06:27:31;;;;;;;16.15;5.07;;;14.50;99.90;;;;;;5052261;28;20025;-73
2021/12/27 06:29:58;;;;;;;18.67;5.45;;;14.40;99.90;;;;;;5051724;28;20112;-73
2021/12/27 06:32:24;;;;;;;15.23;5.20;;;14.50;99.90;;;;;;5051722;28;20122;-73
2021/12/27 06:34:50;;;;;;;20.52;5.78;;;14.50;99.90;;;;;;5051842;28;20415;-73
2021/12/27 06:37:16;;;;;;;19.40;5.35;;;14.50;99.90;;;;;;5049675;28;20029;-74
2021/12/27 06:39:42;;;;;;;19.27;5.40;;;14.50;99.90;;;;;;5051264;28;20154;-71
2021/12/27 06:42:08;;;;;;;15.27;4.90;;;14.50;99.90;;;;;;5050421;28;20041;-73
2021/12/27 06:44:35;;;;;;;22.30;5.53;;;14.50;99.90;;;;;;5049483;28;20445;-73
2021/12/27 06:47:01;;;;;;;18.02;4.93;;;14.50;99.90;;;;;;5051099;28;20033;-73
2021/12/27 06:49:31;;;;;;;19.40;5.65;;;14.50;99.90;;;;;;5051157;28;20162;-73
2021/12/27 06:51:58;;;;;;;17.40;5.38;;;14.40;99.90;;;;;;5051257;28;20037;-74
2021/12/27 06:54:24;;;;;;;22.77;5.25;;;14.50;99.90;;;;;;5051025;28;20102;-73
2021/12/27 06:56:50;;;;;;;15.20;4.97;;;14.50;99.90;;;;;;5049821;28;20053;-73
2021/12/27 06:59:17;;;;;;;15.43;4.82;;;14.50;99.90;;;;;;5049478;28;20049;-71
2021/12/27 07:01:43;;;;;;;16.52;4.90;;;14.50;99.90;;;;;;5051661;28;20031;-68
2021/12/27 07:04:09;;;;;;;22.23;5.00;;;14.50;99.90;;;;;;5051290;28;20064;-70
2021/12/27 07:06:36;;;;;;;18.80;4.53;;;14.50;99.90;;;;;;5051268;28;20025;-70
2021/12/27 07:09:04;;;;;;;21.23;5.30;;;14.50;99.90;;;;;;5051342;28;20247;-70
2021/12/27 07:11:31;;;;;;;20.30;4.78;;;14.50;99.90;;;;;;5051384;28;20410;-71
2021/12/27 07:13:57;;;;;;;14.90;5.47;;;14.60;99.90;;;;;;5051741;28;20373;-70
2021/12/27 07:16:25;;;;;;;18.17;5.53;;;14.60;99.90;;;;;;5051436;28;20113;-70
2021/12/27 07:18:52;;;;;;;15.73;4.85;;;14.60;99.90;;;;;;5051715;28;20029;-71
2021/12/27 07:21:18;;;;;;;25.77;5.63;;;14.50;99.90;;;;;;5051773;28;20021;-71
2021/12/27 07:23:44;;;;;;;18.70;6.32;;;14.60;99.90;;;;;;5051104;28;20028;-71
2021/12/27 07:26:10;;;;;;;20.52;5.97;;;14.60;99.90;;;;;;5052280;28;20473;-71
2021/12/27 07:28:37;;;;;;;21.83;6.90;;;14.60;99.90;;;;;;5051379;28;20028;-71
2021/12/27 07:31:03;;;;;;;26.95;6.75;;;14.60;99.90;;;;;;5051186;28;20033;-71
2021/12/27 07:33:29;;;;;;;19.48;5.38;;;14.70;99.90;;;;;;5051698;28;20021;-71
2021/12/27 07:35:55;;;;;;;19.30;5.63;;;14.70;99.90;;;;;;5051290;28;20028;-71
2021/12/27 07:38:21;;;;;;;20.93;5.83;;;14.70;99.90;;;;;;5065596;28;20021;-71
2021/12/27 07:40:47;;;;;;;26.90;6.22;;;14.70;99.90;;;;;;5071364;28;20388;-71
2021/12/27 07:43:13;;;;;;;27.02;6.18;;;14.60;99.90;;;;;;5071506;28;20032;-71
2021/12/27 07:45:39;;;;;;;20.43;5.73;;;14.60;99.90;;;;;;5071673;28;20021;-70
2021/12/27 07:48:07;;;;;;;22.20;5.63;;;14.60;99.90;;;;;;5071432;28;20365;-71
2021/12/27 07:50:37;;;;;;;19.08;5.25;;;14.70;99.90;;;;;;5071268;28;20039;-71
2021/12/27 07:53:04;;;;;;;26.65;6.00;;;14.70;99.90;;;;;;5070959;28;20036;-70
2021/12/27 07:55:31;;;;;;;24.90;5.55;;;14.80;99.90;;;;;;5050812;28;20027;-70
2021/12/27 07:57:58;;;;;;;17.33;4.57;;;14.90;99.90;;;;;;5057942;28;20078;-69
2021/12/27 08:00:24;;;;;;;22.23;5.38;;;14.90;99.90;;;;;;5070671;28;20055;-72
2021/12/27 08:02:51;;;;;;;21.33;5.20;;;15.00;99.90;;;;;;5070701;28;20063;-67
2021/12/27 08:05:18;;;;;;;22.42;5.68;;;15.00;99.90;;;;;;5071052;28;20029;-67
2021/12/27 08:07:44;;;;;;;32.53;6.13;;;15.00;99.90;;;;;;5066476;28;20025;-67
2021/12/27 08:10:13;;;;;;;34.75;7.00;;;15.00;99.90;;;;;;5071887;28;20028;-67
2021/12/27 08:12:39;;;;;;;37.22;6.63;;;15.00;99.90;;;;;;5074779;28;20115;-67
2021/12/27 08:15:06;;;;;;;;;;;15.00;99.90;;;;;;5075263;28;20031;-69
2021/12/27 08:17:32;;;;;;;;;;;15.00;99.90;;;;;;5075021;28;19949;-69
2021/12/27 08:19:58;;;;;;;29.40;5.75;;;15.00;99.90;;;;;;5074614;28;19909;-69
2021/12/27 08:22:24;;;;;;;29.90;6.40;;;15.00;99.90;;;;;;5074379;28;20149;-70
2021/12/27 08:24:51;;;;;;;56.83;9.00;;;15.00;99.90;;;;;;5073302;28;20295;-69
2021/12/27 08:27:19;;;;;;;;;;;15.00;99.90;;;;;;5054732;28;20113;-68
2021/12/27 08:29:45;;;;;;;26.15;7.28;;;15.10;99.90;;;;;;5054223;28;20393;-68
2021/12/27 08:32:11;;;;;;;39.63;10.48;;;15.20;99.90;;;;;;5054527;28;20551;-69
2021/12/27 08:34:37;;;;;;;33.58;8.27;;;15.20;99.90;;;;;;5052637;28;20389;-70
2021/12/27 08:37:04;;;;;;;23.33;7.00;;;15.20;99.90;;;;;;5054259;28;20061;-69
2021/12/27 08:39:30;;;;;;;46.65;9.10;;;15.30;99.90;;;;;;5054292;28;20104;-70
2021/12/27 08:41:57;;;;;;;68.10;11.55;;;15.30;99.90;;;;;;5052410;28;20067;-70
2021/12/27 08:44:23;;;;;;;35.13;7.40;;;15.40;99.90;;;;;;5054102;28;20037;-69
2021/12/27 08:46:49;;;;;;;62.50;10.43;;;15.40;99.90;;;;;;5053896;28;20025;-69
2021/12/27 08:49:16;;;;;;;29.52;7.30;;;15.40;99.90;;;;;;5054009;28;20531;-70
2021/12/27 08:51:42;;;;;;;102.82;16.80;;;15.40;99.90;;;;;;5053991;28;20037;-70
2021/12/27 08:54:08;;;;;;;105.53;15.35;;;15.50;99.90;;;;;;5062206;28;20131;-70
2021/12/27 08:56:34;;;;;;;72.35;11.13;;;15.60;99.90;;;;;;5066794;28;20059;-69
2021/12/27 08:59:00;;;;;;;75.33;11.37;;;15.60;99.90;;;;;;5053524;28;20447;-70
2021/12/27 09:01:27;;;;;;;41.97;9.13;;;15.60;99.90;;;;;;5053865;28;20264;-70
2021/12/27 09:03:53;;;;;;;72.45;12.10;;;15.70;99.90;;;;;;5053727;28;20322;-69
2021/12/27 09:06:19;;;;;;;52.30;9.77;;;15.70;99.90;;;;;;5053430;28;20040;-69
2021/12/27 09:08:45;;;;;;;;;;;15.80;99.90;;;;;;5052465;28;20149;-70
2021/12/27 09:11:11;;;;;;;109.40;13.43;;;15.80;99.90;;;;;;5053496;28;20428;-70
2021/12/27 09:13:38;;;;;;;61.05;9.10;;;16.00;99.90;;;;;;5053112;28;20468;-70
2021/12/27 09:16:05;;;;;;;54.33;9.48;;;16.10;99.90;;;;;;5055737;28;20047;-69
2021/12/27 09:18:33;;;;;;;69.13;10.80;;;16.10;99.90;;;;;;5055547;28;20037;-70
2021/12/27 09:21:00;;;;;;;49.42;7.50;;;16.10;99.90;;;;;;5053267;28;20055;-71
2021/12/27 09:23:28;;;;;;;61.95;9.68;;;16.20;99.90;;;;;;5053393;28;20025;-70
2021/12/27 09:25:54;;;;;;;55.00;9.05;;;16.10;99.90;;;;;;5053427;28;20033;-70
2021/12/27 09:28:20;;;;;;;110.47;15.77;;;16.20;99.90;;;;;;5053057;28;20060;-70
2021/12/27 09:30:46;;;;;;;30.55;5.63;;;16.10;99.90;;;;;;5053228;28;20033;-70
2021/12/27 09:33:13;;;;;;;44.63;7.30;;;16.20;99.90;;;;;;5052849;28;20055;-72
2021/12/27 09:35:39;;;;;;;39.08;6.22;;;16.40;99.90;;;;;;5053076;28;20089;-70
2021/12/27 09:38:05;;;;;;;80.18;13.20;;;16.60;99.90;;;;;;5053226;28;20446;-71
2021/12/27 09:40:32;;;;;;;88.15;14.45;;;16.90;99.90;;;;;;5053027;28;20020;-70
2021/12/27 09:42:58;;;;;;;40.08;6.15;;;17.20;99.90;;;;;;5052847;28;20029;-70
2021/12/27 09:45:24;;;;;;;33.90;5.68;;;17.40;99.90;;;;;;5052957;28;20106;-70
2021/12/27 09:47:51;;;;;;;25.73;6.32;;;17.50;99.90;;;;;;5052888;28;20061;-70
2021/12/27 09:50:28;;;;;;;49.17;8.85;;;17.50;99.90;;;;;;5052853;28;20028;-70
2021/12/27 09:52:54;;;;;;;39.92;8.02;;;17.40;99.90;;;;;;5053134;28;20147;-71
2021/12/27 09:55:21;;;;;;;38.25;6.53;;;17.40;99.90;;;;;;5051358;28;20021;-70
2021/12/27 09:57:47;;;;;;;33.50;6.00;;;17.30;99.90;;;;;;5052541;28;20044;-70
2021/12/27 10:00:14;;;;;;;33.97;6.10;;;17.30;99.90;;;;;;5052246;28;20050;-71
2021/12/27 10:02:40;;;;;;;;;;;17.30;99.90;;;;;;5053288;28;20048;-70
2021/12/27 10:05:07;;;;;;;28.38;5.60;;;17.10;99.90;;;;;;5052584;28;19999;-70
2021/12/27 10:07:41;;;;;;;29.23;5.65;;;17.00;99.90;;;;;;5052333;28;20036;-70
2021/12/27 10:10:09;;;;;;;22.60;4.85;;;17.00;99.90;;;;;;5052540;28;20418;-70
2021/12/27 10:12:36;;;;;;;34.75;6.25;;;17.10;99.90;;;;;;5052433;28;20029;-70
2021/12/27 10:15:09;;;;;;;26.50;5.35;;;16.90;99.90;;;;;;5052304;28;20025;-70
2021/12/27 10:17:37;;;;;;;23.55;4.72;;;16.80;99.90;;;;;;5052762;28;20029;-70
2021/12/27 10:20:17;;;;;;;33.80;6.20;;;16.80;99.90;;;;;;5052100;28;20029;-70
2021/12/27 10:22:46;;;;;;;29.45;5.40;;;17.00;99.90;;;;;;5050807;28;20029;-70
2021/12/27 10:25:20;;;;;;;29.40;5.65;;;17.20;99.90;;;;;;5052177;28;20056;-70
2021/12/27 10:27:48;;;;;;;22.33;4.70;;;17.40;99.90;;;;;;5052389;28;20021;-70
2021/12/27 10:30:17;;;;;;;28.88;7.13;;;17.50;99.90;;;;;;5050611;28;20025;-70
2021/12/27 10:33:00;;;;;;;27.38;4.97;;;17.70;99.90;;;;;;5051259;28;20446;-72
2021/12/27 10:35:37;;;;;;;15.48;4.20;;;17.90;99.90;;;;;;5052455;28;20017;-70
2021/12/27 10:38:13;;;;;;;20.88;4.65;;;18.20;99.90;;;;;;5052436;28;20108;-71
2021/12/27 10:40:46;;;;;;;35.75;6.07;;;18.30;99.90;;;;;;5051763;28;20033;-71
2021/12/27 10:43:12;;;;;;;28.63;5.32;;;18.30;99.90;;;;;;5052140;28;20365;-70
2021/12/27 10:45:39;;;;;;;28.70;5.18;;;18.40;99.90;;;;;;5052126;28;20104;-70
2021/12/27 10:48:05;;;;;;;39.92;10.30;;;18.50;99.90;;;;;;5054150;28;20021;-70
2021/12/27 10:50:33;;;;;;;46.72;6.82;;;18.50;99.90;;;;;;5060239;28;20058;-70
2021/12/27 10:53:05;;;;;;;59.50;8.27;;;18.40;99.90;;;;;;5051667;28;20472;-70
2021/12/27 10:55:39;;;;;;;32.60;5.60;;;18.20;99.90;;;;;;5051960;28;20440;-70
2021/12/27 10:58:16;;;;;;;45.63;7.20;;;18.00;99.90;;;;;;5051649;28;20021;-71
2021/12/27 11:00:44;;;;;;;32.78;5.40;;;18.00;99.90;;;;;;5051523;28;20096;-70
2021/12/27 11:03:36;;;;;;;42.03;5.53;;;18.00;99.90;;;;;;5051381;28;20068;-71
2021/12/27 11:06:04;;;;;;;22.75;4.47;;;17.80;99.90;;;;;;5051368;28;20100;-70
2021/12/27 11:08:32;;;;;;;50.97;7.00;;;17.80;99.90;;;;;;5051554;28;20032;-71
2021/12/27 11:10:59;;;;;;;32.85;5.05;;;17.80;99.90;;;;;;5051321;28;20086;-70
2021/12/27 11:13:27;;;;;;;23.75;4.50;;;17.80;99.90;;;;;;5051459;28;20401;-70
2021/12/27 11:15:53;;;;;;;26.65;4.35;;;17.80;99.90;;;;;;5051348;28;20044;-70
2021/12/27 11:18:20;;;;;;;21.73;4.18;;;17.80;99.90;;;;;;5051578;28;20448;-71
2021/12/27 11:20:51;;;;;;;19.67;4.45;;;17.90;99.90;;;;;;5051729;28;20087;-70
2021/12/27 11:23:19;;;;;;;16.05;4.07;;;17.70;99.90;;;;;;5049950;28;20113;-70
2021/12/27 11:25:46;;;;;;;21.15;4.20;;;17.70;99.90;;;;;;5051450;28;20461;-70
2021/12/27 11:28:27;;;;;;;;;;;17.70;99.90;;;;;;5051669;28;20029;-71
2021/12/27 11:30:54;;;;;;;75.57;8.55;;;17.70;99.90;;;;;;5051470;28;20022;-71
2021/12/27 11:33:22;;;;;;;67.55;8.93;;;17.40;99.90;;;;;;5051425;28;20041;-71
2021/12/27 11:35:59;;;;;;;48.40;7.15;;;17.40;99.90;;;;;;5051133;28;20061;-70
2021/12/27 11:38:36;;;;;;;38.95;7.03;;;17.40;99.90;;;;;;5051516;28;20102;-70
2021/12/27 11:41:06;;;;;;;29.38;6.10;;;17.30;99.90;;;;;;5051612;28;20098;-70
2021/12/27 11:43:50;;;;;;;28.67;4.55;;;17.20;99.90;;;;;;5050988;28;20496;-69
2021/12/27 11:46:17;;;;;;;27.00;5.20;;;17.00;99.90;;;;;;5055009;28;20053;-69
2021/12/27 11:48:47;;;;;;;42.00;5.95;;;17.10;99.90;;;;;;5054731;28;20056;-69
2021/12/27 11:51:14;;;;;;;28.00;6.32;;;17.10;99.90;;;;;;5054623;28;20041;-68
2021/12/27 11:53:55;;;;;;;33.05;6.85;;;17.30;99.90;;;;;;5055072;28;20021;-69
2021/12/27 11:56:44;;;;;;;23.63;6.35;;;17.20;99.90;;;;;;5055120;28;20115;-69
2021/12/27 11:59:22;;;;;;;33.67;10.95;;;17.10;99.90;;;;;;5053960;28;20049;-69
2021/12/27 12:01:57;;;;;;;36.03;12.07;;;17.20;99.90;;;;;;5054432;28;20071;-69
2021/12/27 12:04:42;;;;;;;36.65;14.18;;;17.10;99.90;;;;;;5054437;28;20029;-69
2021/12/27 12:07:10;;;;;;;32.13;8.43;;;17.10;99.90;;;;;;5054277;28;20196;-69
2021/12/27 12:09:47;;;;;;;29.80;8.13;;;17.10;99.90;;;;;;5053798;28;20487;-69
2021/12/27 12:12:14;;;;;;;;;;;17.10;99.90;;;;;;5054486;28;20068;-69
2021/12/27 12:14:41;;;;;;;29.95;7.13;;;17.20;99.90;;;;;;5054262;28;19905;-69
2021/12/27 12:17:14;;;;;;;35.67;7.63;;;17.20;99.90;;;;;;5054008;28;20096;-69
2021/12/27 12:19:48;;;;;;;25.08;7.00;;;17.30;99.90;;;;;;5054307;28;20017;-69
2021/12/27 12:22:42;;;;;;;22.92;5.90;;;17.20;99.90;;;;;;5054308;28;20446;-69
2021/12/27 12:25:19;;;;;;;18.00;4.25;;;17.30;99.90;;;;;;5053927;28;20033;-70
2021/12/27 12:28:00;;;;;;;17.30;3.50;;;17.30;99.90;;;;;;5054416;28;20013;-71
2021/12/27 12:30:32;;;;;;;18.88;3.40;;;17.30;99.90;;;;;;5054205;28;20104;-71
2021/12/27 12:33:28;;;;;;;15.27;3.40;;;17.10;99.90;;;;;;5054024;28;20539;-69
2021/12/27 12:36:00;;;;;;;15.57;3.03;;;17.20;99.90;;;;;;4972924;28;20491;-69
2021/12/27 12:38:29;;;;;;;17.65;4.05;;;17.10;99.90;;;;;;4973200;28;20034;-70
2021/12/27 12:41:11;;;;;;;21.58;5.28;;;17.20;99.90;;;;;;4972769;28;20073;-70
2021/12/27 12:43:56;;;;;;;20.05;3.88;;;17.20;99.90;;;;;;4972895;28;20106;-69
2021/12/27 12:46:25;;;;;;;19.95;3.55;;;17.30;99.90;;;;;;4972572;28;20062;-70
2021/12/27 12:49:24;;;;;;;19.50;3.70;;;17.40;99.90;;;;;;4972562;28;20023;-69
2021/12/27 12:51:56;;;;;;;21.42;4.30;;;17.50;99.90;;;;;;4972603;28;20130;-69